• Join FlightAware (Why Join?)
  • Login
  • US Flag 
07:07PM EDT


 

Airport Tracker/Info


-or-


 

Live Flight TrackerFlight Track Log ✈ FLG3580 ✈ 21-Jun-2013 ✈ KDLH - KMSP

Flight Track Log - Related Links

Times and Time Zones

All times are in EDT time to prevent confusion due to time zone crossing. See the FLG3580 flight status page for this flight to view local times or setup timezone preferences in your user account.

Time Position Orientation Groundspeed Altitude Reporting Facility
EDT Latitude Longitude Course Direction KTS MPH feet Rate Location/Type
03:38PM 46.7725 -92.1322 221° Southwest 245 282 4,900  Level Minneapolis Center
03:40PM 46.6411 -92.4621 223° Southwest  Level FlightAware Approximate
03:40PM 46.7189 -92.2131 226° Southwest 268 308 7,600  Level Minneapolis Center
03:41PM 46.5910 -92.5288 222° Southwest  Level FlightAware Approximate
03:41PM 46.6536 -92.3144 227° Southwest 281 323 10,500  Level Minneapolis Center
03:42PM 46.5413 -92.5958 225° Southwest  Level FlightAware Approximate
03:42PM 46.5972 -92.4031 227° Southwest 292 336 13,000  Level Minneapolis Center
03:43PM 46.4810 -92.6820 225° Southwest  Level FlightAware Approximate
03:43PM 46.5408 -92.4878 226° Southwest 293 337 15,000  Level Minneapolis Center
03:44PM 46.4199 -92.7668 221° Southwest  Level FlightAware Approximate
03:44PM 46.4703 -92.5633 216° Southwest 308 354 16,300  Level Minneapolis Center
03:45PM 46.3958 -92.6464 218° Southwest 327 376 17,500 1,080 Climbing Minneapolis Center
03:46PM 46.3167 -92.7319 217° Southwest 346 398 18,600 1,200 Climbing Minneapolis Center
03:47PM 46.2197 -92.8400 218° Southwest 361 415 20,000 660 Climbing Minneapolis Center
03:48PM 46.1461 -92.9203 217° Southwest 369 425 20,000 -360 Level Minneapolis Center
03:49PM 46.0406 -93.0347 217° Southwest 390 449 19,300 -840 Descending Minneapolis Center
03:50PM 45.9539 -93.1306 218° Southwest 394 453 18,300 -1,020 Descending Minneapolis Center
03:51PM 45.8661 -93.2278 218° Southwest 398 458 17,300 -1,020 Descending Minneapolis Center
03:52PM 45.7792 -93.3219 217° Southwest 395 455 16,200 -780 Descending Minneapolis Center
03:53PM 45.6969 -93.4108 217° Southwest 376 433 15,800 -1,680 Descending Minneapolis Center
03:54PM 45.6011 -93.5133 217° Southwest 361 415 12,800 -2,340 Descending Minneapolis Center
03:55PM 45.5136 -93.5681 204° Southwest 363 418 11,000 -1,260 Descending Minneapolis Center
03:56PM 45.4281 -93.5236 160° South 324 373 10,300 -1,080 Descending Minneapolis Center
03:57PM 45.3467 -93.5239 180° South 293 337 8,800 -1,560 Descending Minneapolis Center
03:58PM 45.2700 -93.5239 180° South 279 321 7,100 -1,200 Descending Minneapolis Center
03:59PM 45.1861 -93.5256 181° South 250 288 6,400 -900 Descending Minneapolis Center
04:00PM 45.1228 -93.5267 181° South 231 266 5,300 -1,020 Descending Minneapolis Center
04:01PM 45.0739 -93.4864 150° Southeast 224 258 4,300 -660 Descending Minneapolis Center
04:02PM 45.0272 -93.4364 143° Southeast 213 245 4,000 -360 Descending Minneapolis Center
04:03PM 44.9756 -93.3817 143° Southeast 195 224 3,600 -420 Descending Minneapolis Center